createdAt,value
2022-12-31T00:00:15.404Z,0.80
2022-12-31T00:03:03.520Z,0.80
2022-12-31T00:05:51.467Z,0.80
2022-12-31T00:08:38.713Z,0.85
2022-12-31T00:11:27.791Z,0.70
2022-12-31T00:14:15.332Z,0.93
2022-12-31T00:17:02.946Z,0.73
2022-12-31T00:19:50.303Z,0.70
2022-12-31T00:22:37.783Z,0.95
2022-12-31T00:25:26.064Z,0.88
2022-12-31T00:28:16.592Z,1.00
2022-12-31T00:31:18.276Z,0.88
2022-12-31T00:34:06.389Z,0.70
2022-12-31T00:36:54.416Z,0.80
2022-12-31T00:39:41.805Z,0.75
2022-12-31T00:42:29.060Z,0.80
2022-12-31T00:45:16.519Z,0.90
2022-12-31T00:48:04.114Z,1.10
2022-12-31T00:50:52.284Z,1.15
2022-12-31T00:53:39.653Z,1.10
2022-12-31T00:56:31.318Z,0.83
2022-12-31T00:59:43.486Z,0.90
2022-12-31T01:02:30.850Z,1.00
2022-12-31T01:05:19.620Z,1.00
2022-12-31T01:08:08.535Z,1.00
2022-12-31T01:11:14.378Z,0.90
2022-12-31T01:14:13.774Z,0.85
2022-12-31T01:17:01.750Z,0.95
2022-12-31T01:19:48.994Z,0.90
2022-12-31T01:22:36.114Z,0.90
2022-12-31T01:25:23.672Z,0.80
2022-12-31T01:28:10.945Z,0.70
2022-12-31T01:30:59.400Z,0.70
2022-12-31T01:33:47.350Z,0.77
2022-12-31T01:36:36.122Z,0.70
2022-12-31T01:39:23.333Z,0.80
2022-12-31T01:42:12.436Z,0.60
2022-12-31T01:44:59.691Z,0.63
2022-12-31T01:47:50.959Z,0.88
2022-12-31T01:50:40.083Z,0.60
2022-12-31T01:53:27.373Z,0.63
2022-12-31T01:56:14.835Z,0.70
2022-12-31T01:59:08.194Z,0.60
2022-12-31T02:01:56.331Z,0.60
2022-12-31T02:04:43.775Z,0.70
2022-12-31T02:07:31.214Z,0.60
2022-12-31T02:10:18.827Z,0.60
2022-12-31T02:13:06.343Z,0.70
2022-12-31T02:16:05.758Z,0.70
2022-12-31T02:19:27.104Z,0.70
2022-12-31T02:22:17.580Z,0.70
2022-12-31T02:25:36.971Z,0.65
2022-12-31T02:28:36.354Z,0.60
2022-12-31T02:31:30.293Z,0.60
2022-12-31T02:34:24.609Z,0.68
2022-12-31T02:37:15.257Z,0.75
2022-12-31T02:40:03.640Z,0.60
2022-12-31T02:42:55.373Z,0.60
2022-12-31T02:45:52.578Z,0.55
2022-12-31T02:48:55.103Z,0.73
2022-12-31T02:52:00.698Z,0.80
2022-12-31T02:55:06.346Z,0.70
2022-12-31T02:58:44.816Z,0.60
2022-12-31T03:01:57.650Z,0.60
2022-12-31T03:04:53.312Z,0.70
2022-12-31T03:07:42.006Z,0.50
2022-12-31T03:10:29.386Z,0.80
2022-12-31T03:13:17.567Z,0.60
2022-12-31T03:16:08.508Z,0.60
2022-12-31T03:19:14.288Z,0.70
2022-12-31T03:22:20.181Z,0.70
2022-12-31T03:25:34.131Z,0.80
2022-12-31T03:28:24.360Z,0.60
2022-12-31T03:31:11.727Z,0.70
2022-12-31T03:33:59.175Z,0.70
2022-12-31T03:36:46.596Z,0.98
2022-12-31T03:39:33.848Z,0.70
2022-12-31T03:42:21.043Z,0.60
2022-12-31T03:45:09.774Z,0.70
2022-12-31T03:47:56.987Z,0.68
2022-12-31T03:50:44.976Z,0.70
2022-12-31T03:53:34.803Z,0.80
2022-12-31T03:56:24.754Z,0.90
2022-12-31T03:59:12.110Z,0.80
2022-12-31T04:01:59.468Z,0.70
2022-12-31T04:04:46.774Z,0.70
2022-12-31T04:07:34.015Z,0.70
2022-12-31T04:10:21.415Z,0.70
2022-12-31T04:13:08.634Z,0.70
2022-12-31T04:15:55.843Z,0.70
2022-12-31T04:18:42.978Z,0.80
2022-12-31T04:21:34.941Z,0.77
2022-12-31T04:24:22.724Z,0.70
2022-12-31T04:27:13.644Z,0.70
2022-12-31T04:30:00.885Z,0.80
2022-12-31T04:32:48.975Z,0.60
2022-12-31T04:35:36.280Z,0.70
2022-12-31T04:38:23.501Z,0.60
2022-12-31T04:41:20.972Z,0.70
2022-12-31T04:44:11.118Z,0.80
2022-12-31T04:46:58.811Z,0.68
2022-12-31T04:49:45.982Z,0.63
2022-12-31T04:52:37.195Z,0.80
2022-12-31T04:55:30.843Z,0.70
2022-12-31T04:58:19.202Z,0.77
2022-12-31T05:01:07.705Z,0.82
2022-12-31T05:03:56.393Z,0.70
2022-12-31T05:06:44.521Z,0.80
2022-12-31T05:09:32.459Z,0.70
2022-12-31T05:12:21.543Z,0.60
2022-12-31T05:15:10.233Z,0.70
2022-12-31T05:17:57.903Z,0.68
2022-12-31T05:20:48.225Z,0.65
2022-12-31T05:23:36.222Z,0.60
2022-12-31T05:26:26.246Z,0.68
2022-12-31T05:29:13.873Z,0.60
2022-12-31T05:32:01.712Z,0.57
2022-12-31T05:34:51.138Z,0.60
2022-12-31T05:37:39.324Z,0.60
2022-12-31T05:40:29.069Z,0.70
2022-12-31T05:43:17.318Z,0.60
2022-12-31T05:46:05.564Z,0.70
2022-12-31T05:48:53.169Z,0.50
2022-12-31T05:51:40.419Z,0.60
2022-12-31T05:54:27.756Z,0.60
2022-12-31T05:57:15.278Z,0.55
2022-12-31T06:00:05.590Z,0.50
2022-12-31T06:03:00.887Z,0.80
2022-12-31T06:05:48.771Z,0.80
2022-12-31T06:08:36.838Z,0.70
2022-12-31T06:11:24.369Z,0.70
2022-12-31T06:14:12.395Z,0.60
2022-12-31T06:17:00.418Z,0.60
2022-12-31T06:19:48.306Z,0.70
2022-12-31T06:22:37.558Z,0.70
2022-12-31T06:25:26.828Z,0.70
2022-12-31T06:28:20.016Z,0.60
2022-12-31T06:31:13.953Z,0.60
2022-12-31T06:34:02.616Z,0.80
2022-12-31T06:36:50.218Z,0.73
2022-12-31T06:39:38.011Z,0.60
2022-12-31T06:42:28.843Z,0.50
2022-12-31T06:45:16.272Z,0.63
2022-12-31T06:48:03.704Z,0.73
2022-12-31T06:50:50.955Z,0.70
2022-12-31T06:53:38.148Z,0.70
2022-12-31T06:56:34.092Z,0.80
2022-12-31T06:59:25.643Z,0.73
2022-12-31T07:06:02.495Z,0.80
2022-12-31T07:09:15.562Z,0.60
2022-12-31T07:12:12.416Z,0.80
2022-12-31T07:15:04.808Z,0.80
2022-12-31T07:18:01.045Z,0.70
2022-12-31T07:20:48.541Z,0.70
2022-12-31T07:23:36.653Z,0.80
2022-12-31T07:26:54.277Z,0.70
2022-12-31T07:30:05.400Z,0.80
2022-12-31T07:33:15.990Z,0.77
2022-12-31T07:36:47.006Z,0.70
2022-12-31T07:39:43.497Z,0.65
2022-12-31T07:42:44.589Z,0.70
2022-12-31T07:48:27.638Z,0.63
2022-12-31T07:54:02.828Z,0.60
2022-12-31T07:56:50.559Z,0.73
2022-12-31T08:00:05.548Z,0.60
2022-12-31T08:03:00.001Z,0.80
2022-12-31T08:06:12.565Z,0.70
2022-12-31T08:09:11.196Z,0.75
2022-12-31T08:12:01.521Z,0.70
2022-12-31T08:14:49.065Z,0.80
2022-12-31T08:17:36.485Z,0.65
2022-12-31T08:20:24.356Z,0.73
2022-12-31T08:23:18.483Z,0.60
2022-12-31T08:26:14.989Z,0.70
2022-12-31T08:29:34.961Z,0.75
2022-12-31T08:32:38.797Z,0.73
2022-12-31T08:35:52.136Z,0.60
2022-12-31T08:38:48.455Z,0.70
2022-12-31T08:41:44.208Z,0.60
2022-12-31T08:45:00.583Z,0.82
2022-12-31T08:48:11.113Z,1.13
2022-12-31T08:50:58.673Z,0.70
2022-12-31T08:53:48.313Z,0.50
2022-12-31T08:57:17.595Z,0.70
2022-12-31T09:00:16.249Z,0.80
2022-12-31T09:03:09.237Z,0.70
2022-12-31T09:06:08.819Z,0.60
2022-12-31T09:09:30.308Z,0.60
2022-12-31T09:12:46.026Z,0.70
2022-12-31T09:15:39.040Z,0.70
2022-12-31T09:18:32.829Z,0.68
2022-12-31T09:21:20.664Z,0.70
2022-12-31T09:24:10.582Z,0.80
2022-12-31T09:27:27.567Z,0.95
2022-12-31T09:30:16.766Z,0.77
2022-12-31T09:33:33.721Z,0.75
2022-12-31T09:36:36.566Z,0.70
2022-12-31T09:39:40.430Z,0.70
2022-12-31T09:42:48.521Z,0.85
2022-12-31T09:45:49.142Z,0.85
2022-12-31T09:48:57.497Z,0.90
2022-12-31T09:52:13.644Z,0.70
2022-12-31T09:55:26.196Z,0.80
2022-12-31T09:58:34.571Z,0.80
2022-12-31T10:01:26.108Z,0.90
2022-12-31T10:04:41.260Z,0.80
2022-12-31T10:07:36.684Z,0.90
2022-12-31T10:10:30.372Z,0.98
2022-12-31T10:13:43.999Z,0.80
2022-12-31T10:16:43.073Z,0.93
2022-12-31T10:20:21.453Z,0.70
2022-12-31T10:23:27.168Z,1.00
2022-12-31T10:26:34.641Z,0.70
2022-12-31T10:29:40.031Z,0.80
2022-12-31T10:33:38.677Z,0.80
2022-12-31T10:36:50.789Z,0.90
2022-12-31T10:40:02.504Z,0.82
2022-12-31T10:43:17.721Z,0.60
2022-12-31T10:46:22.693Z,0.70
2022-12-31T10:49:31.691Z,1.42
2022-12-31T10:52:42.461Z,1.25
2022-12-31T10:56:03.848Z,0.70
2022-12-31T10:58:50.927Z,0.80
2022-12-31T11:02:00.138Z,0.70
2022-12-31T11:04:47.387Z,0.70
2022-12-31T11:07:40.517Z,0.80
2022-12-31T11:10:56.433Z,0.70
2022-12-31T11:13:51.955Z,1.00
2022-12-31T11:16:48.278Z,0.80
2022-12-31T11:19:54.044Z,0.52
2022-12-31T11:23:13.051Z,0.80
2022-12-31T11:26:24.465Z,0.70
2022-12-31T11:29:23.543Z,1.65
2022-12-31T11:32:28.997Z,1.73
2022-12-31T11:35:37.674Z,0.70
2022-12-31T11:38:30.112Z,0.88
2022-12-31T11:41:43.518Z,0.60
2022-12-31T11:45:22.854Z,0.80
2022-12-31T11:48:32.932Z,0.70
2022-12-31T11:51:39.046Z,0.60
2022-12-31T11:54:26.256Z,0.73
2022-12-31T11:57:46.571Z,0.70
2022-12-31T12:00:34.696Z,0.50
2022-12-31T12:03:23.103Z,0.50
2022-12-31T12:06:16.243Z,0.65
2022-12-31T12:09:07.199Z,0.60
2022-12-31T12:12:01.428Z,0.63
2022-12-31T12:14:54.491Z,0.70
2022-12-31T12:17:41.741Z,0.70
2022-12-31T12:20:32.846Z,0.55
2022-12-31T12:23:24.949Z,0.63
2022-12-31T12:26:35.101Z,0.70
2022-12-31T12:29:23.625Z,0.70
2022-12-31T12:32:20.389Z,0.68
2022-12-31T12:35:16.642Z,0.70
2022-12-31T12:38:07.343Z,0.60
2022-12-31T12:40:59.465Z,0.65
2022-12-31T12:43:46.861Z,0.50
2022-12-31T12:46:47.759Z,0.70
2022-12-31T12:49:41.408Z,0.52
2022-12-31T12:53:05.387Z,0.50
2022-12-31T12:56:01.532Z,0.60
2022-12-31T12:58:56.177Z,0.60
2022-12-31T13:02:10.416Z,0.50
2022-12-31T13:05:11.216Z,0.70
2022-12-31T13:08:10.380Z,0.70
2022-12-31T13:11:11.453Z,0.50
2022-12-31T13:14:21.668Z,0.70
2022-12-31T13:17:18.235Z,0.60
2022-12-31T13:20:27.482Z,0.60
2022-12-31T13:23:44.136Z,0.70
2022-12-31T13:26:44.837Z,0.50
2022-12-31T13:29:35.160Z,0.50
2022-12-31T13:32:32.732Z,0.60
2022-12-31T13:35:32.883Z,0.60
2022-12-31T13:38:23.260Z,0.50
2022-12-31T13:41:29.122Z,0.70
2022-12-31T13:44:39.401Z,0.63
2022-12-31T13:47:42.314Z,0.50
2022-12-31T13:50:36.169Z,0.60
2022-12-31T13:53:34.834Z,0.60
2022-12-31T13:56:27.283Z,0.60
2022-12-31T13:59:14.358Z,0.50
2022-12-31T14:02:32.263Z,0.50
2022-12-31T14:05:43.036Z,0.60
2022-12-31T14:08:30.369Z,0.47
2022-12-31T14:11:51.779Z,0.50
2022-12-31T14:15:05.309Z,0.57
2022-12-31T14:18:11.316Z,0.65
2022-12-31T14:21:14.422Z,0.60
2022-12-31T14:24:20.336Z,0.70
2022-12-31T14:27:14.839Z,0.73
2022-12-31T14:30:07.438Z,0.50
2022-12-31T14:33:18.715Z,0.55
2022-12-31T14:36:31.391Z,0.60
2022-12-31T14:39:44.007Z,0.60
2022-12-31T14:42:44.629Z,0.50
2022-12-31T14:46:11.447Z,0.68
2022-12-31T14:49:07.842Z,0.60
2022-12-31T14:51:54.927Z,0.60
2022-12-31T14:54:42.662Z,0.60
2022-12-31T14:58:09.605Z,0.68
2022-12-31T15:00:57.310Z,0.60
2022-12-31T15:03:46.390Z,0.60
2022-12-31T15:06:53.301Z,0.60
2022-12-31T15:09:54.202Z,0.68
2022-12-31T15:13:03.367Z,0.60
2022-12-31T15:16:17.255Z,0.63
2022-12-31T15:19:19.638Z,0.65
2022-12-31T15:22:32.046Z,0.68
2022-12-31T15:25:40.738Z,0.60
2022-12-31T15:28:39.710Z,0.60
2022-12-31T15:31:30.606Z,0.70
2022-12-31T15:34:26.117Z,0.60
2022-12-31T15:37:31.701Z,0.68
2022-12-31T15:40:20.853Z,0.70
2022-12-31T15:43:29.903Z,0.70
2022-12-31T15:46:24.912Z,0.70
2022-12-31T15:49:19.429Z,0.70
2022-12-31T15:52:13.895Z,0.73
2022-12-31T15:55:05.454Z,0.70
2022-12-31T15:57:55.378Z,0.60
2022-12-31T16:00:57.988Z,0.80
2022-12-31T16:03:49.586Z,0.80
2022-12-31T16:06:38.563Z,0.88
2022-12-31T16:09:29.497Z,0.80
2022-12-31T16:12:25.335Z,0.93
2022-12-31T16:15:32.781Z,1.30
2022-12-31T16:18:23.034Z,1.00
2022-12-31T16:21:26.003Z,1.17
2022-12-31T16:24:31.676Z,1.08
2022-12-31T16:27:18.931Z,0.90
2022-12-31T16:30:18.239Z,1.42
2022-12-31T16:33:11.416Z,0.90
2022-12-31T16:36:01.353Z,0.80
2022-12-31T16:38:52.130Z,1.10
2022-12-31T16:41:43.268Z,0.95
2022-12-31T16:44:30.917Z,1.00
2022-12-31T16:47:21.447Z,1.05
2022-12-31T16:50:16.717Z,1.15
2022-12-31T16:53:07.086Z,1.00
2022-12-31T16:56:01.424Z,1.02
2022-12-31T16:58:49.469Z,1.10
2022-12-31T17:01:38.437Z,1.00
2022-12-31T17:04:26.194Z,1.00
2022-12-31T17:07:26.794Z,1.05
2022-12-31T17:10:26.353Z,1.20
2022-12-31T17:13:32.104Z,0.90
2022-12-31T17:16:19.897Z,1.10
2022-12-31T17:19:07.288Z,1.13
2022-12-31T17:21:54.544Z,1.00
2022-12-31T17:24:41.855Z,1.10
2022-12-31T17:27:29.716Z,1.00
2022-12-31T17:30:39.828Z,1.10
2022-12-31T17:33:29.258Z,1.30
2022-12-31T17:36:23.175Z,1.20
2022-12-31T17:39:22.420Z,1.10
2022-12-31T17:42:11.159Z,1.13
2022-12-31T17:45:05.782Z,1.10
2022-12-31T17:47:53.939Z,1.27
2022-12-31T17:51:07.577Z,1.38
2022-12-31T17:53:54.656Z,1.27
2022-12-31T17:56:42.548Z,1.42
2022-12-31T17:59:33.332Z,1.23
2022-12-31T18:02:20.808Z,1.20
2022-12-31T18:05:19.988Z,1.50
2022-12-31T18:08:07.193Z,1.40
2022-12-31T18:10:54.829Z,1.33
2022-12-31T18:13:42.042Z,1.55
2022-12-31T18:16:29.388Z,1.70
2022-12-31T18:19:45.889Z,1.70
2022-12-31T18:22:24.162Z,1.70
2022-12-31T18:25:18.733Z,2.22
2022-12-31T18:28:09.537Z,1.80
2022-12-31T18:30:56.771Z,1.92
2022-12-31T18:33:44.406Z,2.00
2022-12-31T18:36:31.488Z,1.85
2022-12-31T18:39:18.720Z,2.00
2022-12-31T18:42:06.283Z,1.75
2022-12-31T18:44:53.644Z,2.22
2022-12-31T18:47:40.890Z,1.90
2022-12-31T18:50:28.017Z,1.85
2022-12-31T18:53:20.628Z,1.88
2022-12-31T18:56:13.034Z,2.15
2022-12-31T18:59:00.225Z,2.30
2022-12-31T19:01:47.530Z,2.03
2022-12-31T19:04:34.907Z,1.85
2022-12-31T19:07:22.003Z,2.22
2022-12-31T19:10:09.425Z,2.42
2022-12-31T19:12:56.848Z,2.33
2022-12-31T19:15:49.396Z,2.50
2022-12-31T19:18:36.901Z,2.78
2022-12-31T19:21:24.074Z,2.83
2022-12-31T19:24:26.472Z,2.47
2022-12-31T19:27:13.838Z,2.83
2022-12-31T19:30:01.383Z,2.50
2022-12-31T19:32:48.840Z,2.35
2022-12-31T19:35:36.212Z,2.35
2022-12-31T19:38:25.560Z,2.60
2022-12-31T19:41:18.899Z,2.58
2022-12-31T19:44:06.045Z,2.65
2022-12-31T19:46:53.274Z,2.33
2022-12-31T19:49:40.544Z,2.20
2022-12-31T19:52:27.674Z,2.55
2022-12-31T19:55:19.324Z,2.35
2022-12-31T19:58:07.504Z,2.20
2022-12-31T20:01:01.929Z,2.30
2022-12-31T20:03:50.815Z,2.03
2022-12-31T20:06:37.897Z,2.33
2022-12-31T20:09:25.043Z,2.25
2022-12-31T20:12:12.214Z,2.40
2022-12-31T20:14:59.732Z,2.13
2022-12-31T20:17:47.007Z,2.15
2022-12-31T20:20:34.161Z,2.40
2022-12-31T20:23:21.253Z,2.55
2022-12-31T20:26:08.722Z,2.55
2022-12-31T20:28:55.876Z,2.55
2022-12-31T20:31:43.124Z,2.10
2022-12-31T20:34:30.282Z,2.60
2022-12-31T20:37:17.403Z,2.30
2022-12-31T20:40:05.540Z,2.30
2022-12-31T20:42:52.681Z,2.50
2022-12-31T20:45:41.309Z,2.63
2022-12-31T20:48:31.013Z,2.60
2022-12-31T20:51:19.280Z,2.58
2022-12-31T20:54:11.763Z,2.70
2022-12-31T20:57:00.191Z,2.40
2022-12-31T20:59:47.446Z,2.53
2022-12-31T21:02:42.145Z,2.42
2022-12-31T21:05:31.422Z,2.67
2022-12-31T21:08:19.371Z,2.55
2022-12-31T21:11:26.730Z,2.65
2022-12-31T21:14:14.504Z,2.35
2022-12-31T21:17:01.739Z,2.47
2022-12-31T21:19:48.867Z,2.85
2022-12-31T21:22:36.056Z,2.97
2022-12-31T21:25:23.139Z,2.78
2022-12-31T21:28:10.968Z,2.80
2022-12-31T21:30:59.477Z,2.97
2022-12-31T21:33:47.287Z,3.53
2022-12-31T21:36:34.486Z,3.15
2022-12-31T21:39:21.869Z,3.60
2022-12-31T21:42:09.111Z,3.50
2022-12-31T21:44:56.251Z,3.72
2022-12-31T21:48:02.229Z,3.40
2022-12-31T21:50:51.691Z,3.15
2022-12-31T21:53:38.952Z,3.35
2022-12-31T21:56:26.350Z,3.30
2022-12-31T21:59:32.442Z,3.72
2022-12-31T22:02:38.210Z,3.80
2022-12-31T22:05:25.505Z,3.40
2022-12-31T22:08:12.593Z,3.40
2022-12-31T22:10:59.815Z,3.63
2022-12-31T22:13:47.549Z,3.55
2022-12-31T22:16:34.855Z,3.40
2022-12-31T22:19:22.171Z,3.50
2022-12-31T22:22:09.497Z,3.28
2022-12-31T22:24:56.610Z,3.30
2022-12-31T22:27:53.126Z,4.00
2022-12-31T22:30:51.036Z,4.20
2022-12-31T22:33:38.394Z,4.13
2022-12-31T22:36:25.602Z,4.10
2022-12-31T22:39:44.119Z,3.97
2022-12-31T22:42:23.520Z,3.95
2022-12-31T22:45:11.083Z,4.25
2022-12-31T22:47:58.175Z,4.18
2022-12-31T22:50:54.486Z,3.50
2022-12-31T22:53:43.284Z,3.58
2022-12-31T22:56:30.382Z,3.63
2022-12-31T22:59:17.485Z,4.03
2022-12-31T23:02:04.715Z,3.85
2022-12-31T23:04:51.890Z,3.72
2022-12-31T23:07:38.994Z,3.83
2022-12-31T23:10:52.457Z,3.20
2022-12-31T23:14:00.629Z,3.90
2022-12-31T23:17:30.254Z,3.90
2022-12-31T23:20:37.611Z,4.18
2022-12-31T23:26:13.264Z,4.10
2022-12-31T23:29:01.296Z,4.40
2022-12-31T23:31:48.456Z,5.07
2022-12-31T23:34:35.831Z,5.60
2022-12-31T23:37:23.015Z,5.70
2022-12-31T23:40:14.466Z,6.38
2022-12-31T23:43:07.481Z,7.25
2022-12-31T23:45:54.567Z,7.72
2022-12-31T23:48:42.464Z,7.47
2022-12-31T23:51:29.924Z,8.40
2022-12-31T23:54:17.871Z,9.32
2022-12-31T23:57:05.040Z,10.65
2022-12-31T23:59:52.395Z,10.07
